Time;durP1;ratioP1;P1;durP2;ratioP2;P2;SDS_P1;SDS_P2;PMS_P1;PMS_P2;Temp;Humidity;BMP_temperature;BMP_pressure;BME280_temperature;BME280_humidity;BME280_pressure;Samples;Min_cycle;Max_cycle;Signal;HPM_P1;HPM_P2
2021/10/28 00:14:22;;;;;;;11.73;7.65;;;12.30;95.60;;;;;;4952373;28;20114;-82
2021/10/28 00:16:50;;;;;;;11.85;8.20;;;12.50;94.50;;;;;;4948967;28;20030;-82
2021/10/28 00:19:16;;;;;;;10.68;7.95;;;12.50;94.50;;;;;;4952078;28;20086;-82
2021/10/28 00:21:43;;;;;;;11.70;7.80;;;12.50;94.00;;;;;;4953012;28;20032;-80
2021/10/28 00:24:11;;;;;;;10.80;8.57;;;12.60;94.00;;;;;;4951898;28;20015;-80
2021/10/28 00:26:44;;;;;;;12.68;8.65;;;12.60;93.60;;;;;;4949555;28;20520;-80
2021/10/28 00:29:16;;;;;;;10.57;7.85;;;12.70;93.80;;;;;;4948344;28;20118;-80
2021/10/28 00:31:43;;;;;;;9.57;8.23;;;12.70;93.30;;;;;;4949435;28;20807;-79
2021/10/28 00:34:12;;;;;;;10.82;8.55;;;12.70;93.30;;;;;;4948899;28;20031;-80
2021/10/28 00:36:38;;;;;;;10.48;8.38;;;12.70;93.70;;;;;;4952979;28;20034;-80
2021/10/28 00:39:07;;;;;;;10.52;7.90;;;12.70;93.30;;;;;;4952460;28;20026;-79
2021/10/28 00:41:33;;;;;;;13.65;8.07;;;12.70;93.00;;;;;;4953469;28;20066;-79
2021/10/28 00:44:00;;;;;;;13.40;8.90;;;12.70;93.30;;;;;;4952609;28;20538;-80
2021/10/28 00:46:32;;;;;;;14.65;8.48;;;12.60;93.20;;;;;;4946828;28;20090;-80
2021/10/28 00:48:59;;;;;;;11.95;8.13;;;12.70;93.20;;;;;;4953080;28;20027;-81
2021/10/28 00:51:27;;;;;;;11.02;8.75;;;12.70;92.80;;;;;;4951596;28;20024;-81
2021/10/28 00:53:55;;;;;;;11.38;8.57;;;12.80;92.50;;;;;;4967537;28;20521;-81
2021/10/28 00:56:23;;;;;;;14.88;9.18;;;12.80;92.50;;;;;;4952747;28;20024;-80
2021/10/28 00:58:49;;;;;;;13.30;8.30;;;12.80;92.80;;;;;;4950440;28;20028;-80
2021/10/28 01:01:15;;;;;;;17.13;9.35;;;12.80;92.70;;;;;;4951520;28;20039;-81
2021/10/28 01:03:41;;;;;;;14.93;9.02;;;12.80;92.30;;;;;;4952689;28;20412;-82
2021/10/28 01:06:09;;;;;;;17.50;9.00;;;12.80;92.30;;;;;;4967801;28;20027;-80
2021/10/28 01:08:39;;;;;;;10.32;9.05;;;12.90;92.00;;;;;;4952732;28;20031;-80
2021/10/28 01:11:06;;;;;;;13.07;8.95;;;12.90;92.10;;;;;;4951681;28;20033;-81
2021/10/28 01:13:32;;;;;;;12.00;8.45;;;12.80;91.80;;;;;;4952602;28;20027;-81
2021/10/28 01:15:58;;;;;;;11.80;8.55;;;12.90;91.60;;;;;;4949197;29;20019;-81
2021/10/28 01:18:24;;;;;;;10.20;8.30;;;12.80;92.00;;;;;;4936015;29;20034;-80
2021/10/28 01:20:53;;;;;;;10.40;8.23;;;12.80;91.60;;;;;;4952620;28;20402;-81
2021/10/28 01:23:23;;;;;;;14.55;9.15;;;12.90;91.80;;;;;;4952714;28;20034;-81
2021/10/28 01:26:02;;;;;;;16.30;9.30;;;12.80;91.80;;;;;;4952675;28;20382;-81
2021/10/28 01:28:30;;;;;;;11.90;8.90;;;12.70;92.10;;;;;;4935275;28;20034;-81
2021/10/28 01:31:02;;;;;;;12.15;8.95;;;12.60;92.40;;;;;;4952273;28;20034;-81
2021/10/28 01:33:28;;;;;;;11.65;9.10;;;12.60;92.60;;;;;;4937087;29;20031;-81
2021/10/28 01:35:54;;;;;;;12.10;9.73;;;12.50;92.70;;;;;;4952387;28;20030;-81
2021/10/28 01:38:20;;;;;;;11.95;9.30;;;12.50;92.70;;;;;;4950827;28;20035;-81
2021/10/28 01:40:55;;;;;;;11.27;8.80;;;12.50;92.90;;;;;;4950851;28;20090;-80
2021/10/28 01:43:22;;;;;;;12.38;9.13;;;12.50;93.10;;;;;;4951924;28;20114;-80
2021/10/28 01:45:48;;;;;;;12.05;9.65;;;12.40;93.20;;;;;;4951983;28;20059;-80
2021/10/28 01:48:14;;;;;;;16.85;9.43;;;12.40;92.90;;;;;;4954185;28;20544;-81
2021/10/28 01:50:42;;;;;;;12.32;9.82;;;12.40;92.80;;;;;;4952630;28;20079;-81
2021/10/28 01:53:12;;;;;;;14.90;9.80;;;12.50;92.80;;;;;;4952513;28;20015;-81
2021/10/28 01:55:39;;;;;;;12.18;9.00;;;12.40;92.70;;;;;;4952494;28;20106;-81
2021/10/28 01:58:05;;;;;;;15.13;10.52;;;12.40;92.90;;;;;;4952043;28;20142;-80
2021/10/28 02:00:31;;;;;;;11.50;9.52;;;12.40;92.80;;;;;;4952137;28;20074;-81
2021/10/28 02:02:57;;;;;;;15.90;9.93;;;12.30;93.00;;;;;;4952411;28;20023;-80
2021/10/28 02:05:24;;;;;;;13.73;10.30;;;12.30;92.90;;;;;;4966092;28;20629;-81
2021/10/28 02:07:51;;;;;;;13.82;10.20;;;12.30;92.70;;;;;;4952449;28;20019;-81
2021/10/28 02:10:20;;;;;;;15.13;9.77;;;12.20;92.60;;;;;;4951832;28;20359;-81
2021/10/28 02:12:47;;;;;;;10.52;9.05;;;12.20;92.70;;;;;;4953051;28;20019;-83
2021/10/28 02:15:15;;;;;;;16.55;9.93;;;12.20;92.60;;;;;;4966832;28;20031;-82
2021/10/28 02:17:42;;;;;;;13.73;9.63;;;12.20;92.70;;;;;;4952874;28;20030;-81
2021/10/28 02:20:10;;;;;;;13.35;9.65;;;12.30;92.40;;;;;;4950752;28;20035;-81
2021/10/28 02:22:36;;;;;;;12.48;9.05;;;12.30;92.40;;;;;;4945781;29;20035;-82
2021/10/28 02:25:04;;;;;;;12.40;9.50;;;12.20;92.70;;;;;;4950260;28;20073;-80
2021/10/28 02:27:30;;;;;;;14.57;9.65;;;12.10;92.60;;;;;;4951770;28;20023;-81
2021/10/28 02:29:56;;;;;;;15.57;10.82;;;12.10;92.40;;;;;;4948342;28;20090;-81
2021/10/28 02:32:22;;;;;;;13.35;10.18;;;12.10;92.70;;;;;;4950948;28;20118;-81
2021/10/28 02:34:47;;;;;;;13.75;10.18;;;12.10;92.60;;;;;;4951417;28;20031;-81
2021/10/28 02:37:13;;;;;;;14.98;10.63;;;12.00;92.30;;;;;;4951752;28;20035;-81
2021/10/28 02:39:39;;;;;;;15.02;11.05;;;12.10;92.20;;;;;;4949929;28;20031;-82
2021/10/28 02:42:05;;;;;;;14.10;10.60;;;12.10;92.10;;;;;;4951348;28;20035;-81
2021/10/28 02:44:32;;;;;;;12.13;9.88;;;12.10;92.20;;;;;;4951065;28;20054;-80
2021/10/28 02:46:58;;;;;;;12.77;9.38;;;12.10;92.10;;;;;;4966491;28;20383;-81
2021/10/28 02:49:25;;;;;;;12.25;9.68;;;12.20;91.40;;;;;;4965639;28;20031;-81
2021/10/28 02:51:50;;;;;;;17.90;9.95;;;12.20;91.60;;;;;;4949935;28;20023;-80
2021/10/28 02:54:18;;;;;;;19.13;10.60;;;12.10;92.10;;;;;;4950846;28;20027;-81
2021/10/28 02:56:45;;;;;;;15.48;10.02;;;12.10;92.00;;;;;;4951293;28;20023;-81
2021/10/28 02:59:11;;;;;;;13.10;10.57;;;12.10;91.70;;;;;;4950532;28;20031;-81
2021/10/28 03:01:45;;;;;;;14.85;10.27;;;12.10;92.00;;;;;;4951494;28;20090;-82
2021/10/28 03:04:14;;;;;;;17.23;10.85;;;12.10;92.50;;;;;;4951322;28;20062;-82
2021/10/28 03:06:41;;;;;;;11.95;9.90;;;12.00;92.60;;;;;;4951368;28;20062;-82
2021/10/28 03:09:09;;;;;;;16.33;11.63;;;12.00;92.50;;;;;;4949975;28;20056;-81
2021/10/28 03:11:36;;;;;;;12.25;10.02;;;12.00;92.40;;;;;;4951321;28;20039;-82
2021/10/28 03:14:02;;;;;;;12.60;9.27;;;12.00;92.60;;;;;;4966047;28;20027;-81
2021/10/28 03:16:55;;;;;;;13.68;9.93;;;11.90;91.80;;;;;;4951688;28;20027;-82
2021/10/28 03:27:29;;;;;;;15.68;10.32;;;12.00;91.50;;;;;;4932178;29;20035;-82
2021/10/28 03:29:55;;;;;;;15.90;10.25;;;12.00;92.10;;;;;;4946420;28;20035;-81
2021/10/28 03:32:23;;;;;;;13.88;9.85;;;11.90;91.90;;;;;;4950734;28;20027;-81
2021/10/28 03:34:50;;;;;;;13.93;10.30;;;11.90;92.10;;;;;;4950599;28;20030;-81
2021/10/28 04:19:27;;;;;;;16.23;10.32;;;11.70;92.80;;;;;;4953608;28;20046;-81
2021/10/28 04:29:47;;;;;;;13.98;9.38;;;11.70;92.60;;;;;;4955878;28;20046;-81
2021/10/28 04:32:13;;;;;;;14.07;10.38;;;11.70;92.30;;;;;;4955249;28;20031;-81
2021/10/28 04:34:40;;;;;;;13.68;10.20;;;11.70;92.70;;;;;;4954792;28;20027;-81
2021/10/28 04:37:09;;;;;;;13.45;9.65;;;11.70;92.20;;;;;;4971518;28;20024;-81
2021/10/28 04:39:34;;;;;;;14.40;10.32;;;11.70;92.80;;;;;;4955905;28;20023;-82
2021/10/28 04:42:00;;;;;;;16.20;9.95;;;11.60;92.60;;;;;;4954849;28;20041;-82
2021/10/28 04:44:25;;;;;;;11.73;9.05;;;11.60;92.70;;;;;;4953436;28;20055;-81
2021/10/28 04:46:51;;;;;;;16.67;9.65;;;11.60;92.50;;;;;;4951788;28;20471;-81
2021/10/28 04:49:17;;;;;;;13.98;10.05;;;11.60;92.50;;;;;;4946209;29;20023;-81
2021/10/28 04:51:42;;;;;;;10.50;9.20;;;11.70;93.10;;;;;;4956336;28;20039;-83
2021/10/28 04:54:08;;;;;;;13.20;9.82;;;11.70;92.30;;;;;;4955024;28;20023;-81
2021/10/28 04:56:34;;;;;;;14.07;9.55;;;11.70;92.50;;;;;;4956262;28;20549;-82
2021/10/28 04:59:00;;;;;;;14.38;9.77;;;11.60;92.40;;;;;;4954883;28;20098;-81
2021/10/28 05:01:26;;;;;;;16.45;10.23;;;11.60;92.70;;;;;;4956113;28;20043;-81
2021/10/28 05:03:52;;;;;;;12.77;10.15;;;11.60;92.70;;;;;;4947417;28;20024;-82
2021/10/28 05:06:18;;;;;;;13.65;9.88;;;11.60;92.70;;;;;;4951304;28;20074;-82
2021/10/28 05:08:44;;;;;;;13.23;10.07;;;11.60;93.20;;;;;;4963047;28;20019;-83
2021/10/28 05:11:10;;;;;;;13.38;10.05;;;11.60;92.80;;;;;;4968046;28;20024;-80
2021/10/28 05:13:36;;;;;;;14.68;10.27;;;11.70;93.40;;;;;;4956093;28;20397;-79
2021/10/28 05:16:02;;;;;;;13.57;10.02;;;11.70;92.90;;;;;;4955010;28;20024;-80
2021/10/28 05:18:28;;;;;;;18.42;10.65;;;11.60;93.80;;;;;;4954393;28;20098;-87
2021/10/28 05:20:54;;;;;;;17.88;10.65;;;11.50;93.50;;;;;;4953847;28;20114;-80
2021/10/28 05:23:21;;;;;;;19.05;10.88;;;11.60;93.00;;;;;;4964399;28;20110;-81
2021/10/28 05:25:48;;;;;;;14.15;10.15;;;11.60;93.10;;;;;;4955047;28;20046;-81
2021/10/28 05:28:14;;;;;;;12.13;10.20;;;11.60;93.10;;;;;;4955521;28;20020;-83
2021/10/28 05:30:40;;;;;;;18.10;10.32;;;11.60;93.60;;;;;;4955947;28;20724;-83
2021/10/28 05:33:07;;;;;;;15.65;10.43;;;11.60;93.60;;;;;;4951115;28;20150;-84
2021/10/28 05:35:32;;;;;;;17.75;10.60;;;11.60;93.00;;;;;;4953335;28;20470;-82
2021/10/28 05:37:58;;;;;;;15.43;10.30;;;11.70;93.00;;;;;;4956065;28;20023;-83
2021/10/28 05:40:24;;;;;;;13.40;10.23;;;11.70;92.60;;;;;;4954388;28;20036;-85
2021/10/28 05:42:52;;;;;;;15.55;10.40;;;11.80;92.80;;;;;;4955317;28;20028;-81
2021/10/28 05:45:20;;;;;;;11.55;10.27;;;11.80;92.60;;;;;;4952570;28;20062;-81
2021/10/28 05:47:45;;;;;;;18.13;10.82;;;11.80;93.10;;;;;;4955688;28;20494;-82
2021/10/28 05:50:15;;;;;;;15.25;10.75;;;11.70;93.20;;;;;;4954045;28;20031;-81
2021/10/28 05:52:41;;;;;;;14.43;10.75;;;11.70;92.90;;;;;;4939509;28;20103;-82
2021/10/28 05:55:07;;;;;;;14.35;11.65;;;11.70;93.40;;;;;;4956493;28;20027;-81
2021/10/28 05:57:33;;;;;;;18.50;10.00;;;11.70;93.20;;;;;;4955325;28;20131;-80
2021/10/28 05:59:59;;;;;;;17.88;11.48;;;11.70;93.20;;;;;;4954696;28;20027;-81
2021/10/28 06:02:25;;;;;;;14.70;11.38;;;11.70;94.00;;;;;;4954764;28;20042;-81
2021/10/28 06:04:51;;;;;;;16.20;10.98;;;11.70;93.10;;;;;;4954625;28;20027;-82
2021/10/28 06:07:17;;;;;;;15.98;10.65;;;11.80;92.80;;;;;;4952979;28;20035;-81
2021/10/28 06:09:43;;;;;;;16.08;10.88;;;11.80;92.80;;;;;;4954695;28;20035;-83
2021/10/28 06:12:10;;;;;;;14.98;10.63;;;11.90;92.80;;;;;;4953785;28;20030;-87
2021/10/28 06:14:36;;;;;;;14.32;11.02;;;11.90;92.70;;;;;;4955130;28;20541;-87
2021/10/28 06:17:10;;;;;;;15.50;10.68;;;11.90;93.00;;;;;;4960592;28;20035;-88
2021/10/28 06:19:36;;;;;;;19.38;11.00;;;12.00;92.60;;;;;;4955983;28;20078;-90
2021/10/28 06:22:03;;;;;;;15.30;10.65;;;12.00;92.40;;;;;;4955340;28;20501;-89
2021/10/28 06:24:29;;;;;;;18.98;10.52;;;12.10;92.40;;;;;;4972508;28;20027;-91
2021/10/28 06:26:55;;;;;;;18.42;11.07;;;12.10;92.10;;;;;;4957115;28;20054;-88
2021/10/28 06:29:21;;;;;;;17.02;10.93;;;12.20;92.40;;;;;;4956769;28;20034;-88
2021/10/28 06:31:48;;;;;;;15.30;11.07;;;12.20;91.70;;;;;;4971799;28;20086;-89
2021/10/28 06:34:19;;;;;;;16.15;10.65;;;12.30;91.50;;;;;;4967880;28;20063;-90
2021/10/28 06:36:46;;;;;;;14.20;9.70;;;12.30;91.30;;;;;;4973273;28;20470;-84
2021/10/28 06:39:12;;;;;;;24.17;11.13;;;12.40;91.30;;;;;;4954619;28;20035;-82
2021/10/28 06:41:38;;;;;;;21.98;10.50;;;12.40;91.00;;;;;;4957123;28;20031;-86
2021/10/28 06:44:04;;;;;;;21.25;11.45;;;12.50;90.80;;;;;;4954772;28;20521;-89
2021/10/28 06:46:30;;;;;;;19.30;10.50;;;12.40;90.90;;;;;;4937476;29;20085;-87
2021/10/28 06:48:56;;;;;;;13.63;10.50;;;12.50;90.40;;;;;;4963924;28;20023;-86
2021/10/28 06:51:23;;;;;;;18.40;10.82;;;12.60;90.30;;;;;;4966162;28;20018;-89
2021/10/28 06:54:04;;;;;;;18.45;10.85;;;12.60;90.10;;;;;;4968326;28;20023;-81
2021/10/28 07:04:31;;;;;;;16.60;10.32;;;12.90;88.80;;;;;;4958458;28;20042;-89
2021/10/28 07:06:56;;;;;;;14.27;9.75;;;13.00;89.30;;;;;;4956613;28;20027;-87
2021/10/28 07:09:30;;;;;;;19.02;10.65;;;13.00;89.10;;;;;;4957769;28;20047;-89
2021/10/28 07:14:46;;;;;;;13.32;10.10;;;13.10;88.40;;;;;;4955345;28;20042;-87
2021/10/28 07:17:22;;;;;;;18.05;10.30;;;13.20;87.90;;;;;;4955428;28;20117;-87
2021/10/28 07:55:03;;;;;;;15.68;8.82;;;14.20;84.20;;;;;;4949666;28;20041;-87
2021/10/28 08:21:36;;;;;;;16.08;8.55;;;14.90;80.10;;;;;;4954893;28;20093;-88
2021/10/28 08:31:51;;;;;;;14.43;8.20;;;15.20;78.50;;;;;;4956118;28;20050;-86
2021/10/28 08:34:33;;;;;;;8.60;7.22;;;15.20;78.50;;;;;;4957898;28;20035;-88
2021/10/28 08:37:12;;;;;;;11.77;8.10;;;15.30;77.90;;;;;;4946458;28;20431;-88
2021/10/28 08:39:46;;;;;;;13.23;7.10;;;15.40;78.00;;;;;;4954804;28;20027;-85
2021/10/28 08:42:14;;;;;;;13.43;7.97;;;15.40;76.80;;;;;;4955241;28;20039;-88
2021/10/28 08:44:42;;;;;;;14.25;7.72;;;15.50;78.20;;;;;;4952931;28;20051;-86
2021/10/28 08:47:09;;;;;;;10.93;7.50;;;15.60;76.80;;;;;;4954593;28;20031;-87
2021/10/28 08:49:42;;;;;;;12.93;7.68;;;15.70;76.60;;;;;;4969032;28;20074;-87
2021/10/28 09:24:11;;;;;;;10.43;7.13;;;16.60;69.80;;;;;;4956339;28;20098;-85
2021/10/28 09:32:23;;;;;;;8.57;7.35;;;16.90;68.30;;;;;;4956940;28;20020;-86
2021/10/28 09:46:14;;;;;;;17.38;8.30;;;17.30;67.50;;;;;;4955827;28;20134;-84
2021/10/28 09:51:07;;;;;;;12.20;6.68;;;17.50;67.90;;;;;;4956430;28;20490;-85
2021/10/28 09:59:48;;;;;;;13.38;7.30;;;17.60;66.70;;;;;;4955411;28;20127;-85
2021/10/28 10:05:00;;;;;;;9.30;6.80;;;17.70;65.30;;;;;;4954235;28;20035;-83
2021/10/28 10:07:26;;;;;;;11.70;7.20;;;17.70;65.60;;;;;;4953951;28;20109;-85
2021/10/28 10:09:53;;;;;;;11.07;7.15;;;17.80;65.90;;;;;;4954578;28;20114;-85
2021/10/28 10:12:20;;;;;;;12.15;7.57;;;17.80;64.70;;;;;;4971128;28;20031;-85
2021/10/28 10:14:46;;;;;;;13.52;7.90;;;17.80;65.90;;;;;;4955205;28;20027;-84
2021/10/28 10:17:16;;;;;;;8.50;7.13;;;17.80;66.10;;;;;;4955081;28;20031;-82
2021/10/28 10:19:46;;;;;;;11.43;6.93;;;17.90;65.20;;;;;;4953863;28;20487;-83
2021/10/28 10:22:59;;;;;;;13.55;9.70;;;18.00;65.50;;;;;;4954721;28;20031;-86
2021/10/28 10:26:38;;;;;;;8.13;6.57;;;18.00;65.10;;;;;;4957466;28;20669;-85
2021/10/28 11:03:14;;;;;;;9.25;7.05;;;18.30;65.60;;;;;;4954514;28;20171;-85
2021/10/28 11:25:37;;;;;;;9.77;7.60;;;19.90;62.90;;;;;;4958300;28;20038;-87
2021/10/28 12:17:24;;;;;;;10.60;6.20;;;23.40;61.90;;;;;;4956037;28;20117;-89
2021/10/28 12:20:12;;;;;;;9.85;5.93;;;23.30;62.90;;;;;;4954473;28;20046;-87
2021/10/28 12:25:23;;;;;;;13.85;6.68;;;24.30;59.40;;;;;;4954283;28;20023;-87
2021/10/28 12:45:04;;;;;;;9.25;6.63;;;22.90;66.20;;;;;;4953636;28;20528;-90
2021/10/28 12:56:29;;;;;;;8.18;5.25;;;23.50;61.90;;;;;;4957578;28;20031;-88
2021/10/28 13:56:22;;;;;;;9.30;4.65;;;22.60;64.30;;;;;;4961717;28;20042;-91
2021/10/28 13:59:11;;;;;;;5.88;4.55;;;22.40;65.10;;;;;;4957013;28;20113;-89
2021/10/28 14:18:41;;;;;;;5.93;4.95;;;19.40;73.10;;;;;;4957575;28;20023;-92
2021/10/28 15:28:43;;;;;;;11.85;7.72;;;16.70;84.40;;;;;;4957909;28;20162;-87
2021/10/28 15:36:13;;;;;;;11.82;6.38;;;15.60;90.00;;;;;;4954731;28;20038;-89
2021/10/28 15:39:03;;;;;;;9.85;6.90;;;15.50;90.60;;;;;;4954795;28;20118;-83
2021/10/28 15:41:45;;;;;;;8.35;6.95;;;15.40;91.00;;;;;;4971224;28;20180;-83
2021/10/28 16:00:33;;;;;;;11.48;8.80;;;15.00;91.20;;;;;;4953213;28;20082;-83
2021/10/28 16:22:16;;;;;;;28.42;18.92;;;14.20;99.30;;;;;;4958239;28;20644;-85
2021/10/28 16:24:42;;;;;;;16.73;9.68;;;14.20;99.90;;;;;;4971078;28;20027;-81
2021/10/28 16:27:07;;;;;;;45.13;32.90;;;14.00;99.90;;;;;;4954490;28;20058;-80
2021/10/28 16:29:33;;;;;;;49.75;37.63;;;13.90;99.90;;;;;;4968059;28;20043;-89
2021/10/28 16:31:59;;;;;;;16.75;13.93;;;13.80;99.90;;;;;;4958203;28;20060;-78
2021/10/28 16:34:27;;;;;;;42.15;29.90;;;13.70;99.90;;;;;;4956285;28;20422;-85
2021/10/28 16:36:53;;;;;;;21.08;14.40;;;13.60;99.90;;;;;;4955397;28;20031;-84
2021/10/28 16:39:19;;;;;;;21.17;13.45;;;13.60;99.90;;;;;;4954897;28;20027;-82
2021/10/28 16:41:48;;;;;;;22.05;14.73;;;13.60;99.20;;;;;;4957152;28;20478;-80
2021/10/28 16:44:15;;;;;;;17.17;14.85;;;13.60;97.40;;;;;;4956706;28;20051;-79
2021/10/28 16:46:41;;;;;;;17.20;14.25;;;13.80;96.80;;;;;;4957680;28;20022;-83
2021/10/28 16:49:09;;;;;;;19.88;16.13;;;13.80;96.00;;;;;;4955407;28;20027;-83
2021/10/28 16:51:35;;;;;;;18.05;15.32;;;13.90;95.80;;;;;;4955682;28;20030;-82
2021/10/28 16:54:02;;;;;;;24.92;14.73;;;13.90;94.90;;;;;;4957213;28;20031;-83
2021/10/28 16:56:28;;;;;;;23.95;15.45;;;13.90;94.70;;;;;;4959487;28;20047;-83
2021/10/28 16:58:54;;;;;;;20.08;14.88;;;13.90;94.90;;;;;;4956153;28;20039;-84
2021/10/28 17:01:20;;;;;;;19.30;15.07;;;13.90;94.20;;;;;;4956279;28;20083;-83
2021/10/28 17:03:45;;;;;;;19.08;15.93;;;13.90;94.50;;;;;;4952252;28;20023;-82
2021/10/28 17:06:16;;;;;;;18.10;15.50;;;13.80;94.90;;;;;;4952596;28;20030;-82
2021/10/28 17:08:43;;;;;;;18.25;14.63;;;13.70;95.40;;;;;;4947110;28;20557;-82
2021/10/28 17:11:10;;;;;;;20.63;15.77;;;13.70;94.60;;;;;;4956378;28;20035;-83
2021/10/28 17:13:36;;;;;;;21.88;15.38;;;13.80;94.10;;;;;;4954331;28;20027;-83
2021/10/28 17:16:02;;;;;;;21.13;16.10;;;13.80;94.00;;;;;;4953300;28;20042;-82
2021/10/28 17:18:28;;;;;;;17.52;14.98;;;13.90;93.70;;;;;;4949049;28;20024;-82
2021/10/28 17:20:56;;;;;;;19.98;15.98;;;13.90;94.00;;;;;;4954068;28;20498;-84
2021/10/28 17:23:30;;;;;;;21.50;16.13;;;13.80;94.20;;;;;;4954993;28;20078;-79
2021/10/28 17:25:57;;;;;;;22.17;16.65;;;13.70;94.50;;;;;;4957215;28;20019;-81
2021/10/28 17:28:23;;;;;;;22.95;17.40;;;13.70;93.90;;;;;;4972065;28;20024;-81
2021/10/28 17:30:49;;;;;;;21.05;16.70;;;13.80;94.10;;;;;;4955461;28;20050;-80
2021/10/28 17:33:15;;;;;;;23.02;17.52;;;13.80;93.90;;;;;;4955723;28;20629;-81
2021/10/28 17:35:41;;;;;;;20.13;16.45;;;13.80;93.60;;;;;;4949275;28;20035;-81
2021/10/28 17:38:07;;;;;;;24.42;17.17;;;13.80;93.40;;;;;;4955932;28;20483;-82
2021/10/28 17:40:32;;;;;;;27.20;17.23;;;13.80;93.60;;;;;;4955199;28;20126;-80
2021/10/28 17:42:58;;;;;;;22.92;17.88;;;13.80;95.30;;;;;;4954473;28;20027;-86
2021/10/28 17:45:26;;;;;;;23.02;17.40;;;13.80;95.40;;;;;;4954848;28;20105;-83
2021/10/28 17:47:53;;;;;;;21.73;17.67;;;13.80;94.60;;;;;;4957117;28;20023;-81
2021/10/28 17:50:21;;;;;;;19.88;17.55;;;13.80;95.50;;;;;;4955653;28;20106;-88
2021/10/28 17:52:46;;;;;;;27.70;18.42;;;13.70;95.50;;;;;;4939303;28;20035;-81
2021/10/28 17:55:12;;;;;;;21.08;16.67;;;13.70;94.50;;;;;;4950848;28;20028;-84
2021/10/28 17:57:44;;;;;;;25.42;19.10;;;13.70;94.20;;;;;;4960048;28;20039;-90
2021/10/28 18:00:12;;;;;;;22.45;18.08;;;13.70;95.50;;;;;;4957386;28;20027;-85
2021/10/28 18:02:39;;;;;;;24.25;17.42;;;13.70;93.90;;;;;;4959616;28;20035;-87
2021/10/28 18:05:07;;;;;;;23.15;17.08;;;13.70;94.10;;;;;;4957416;29;20027;-87
2021/10/28 18:07:33;;;;;;;18.75;16.30;;;13.70;93.50;;;;;;4952876;28;20502;-84
2021/10/28 18:09:59;;;;;;;22.20;17.00;;;13.70;93.00;;;;;;4949519;28;20061;-82
2021/10/28 18:12:29;;;;;;;22.98;17.30;;;13.60;92.70;;;;;;4950174;28;20115;-83
2021/10/28 18:18:57;;;;;;;24.10;19.75;;;13.60;92.90;;;;;;5084977;27;1685168;-81
2021/10/28 18:21:25;;;;;;;21.63;17.55;;;13.60;94.40;;;;;;5119191;28;20099;-85
2021/10/28 18:23:54;;;;;;;25.13;17.65;;;13.60;92.80;;;;;;5112702;28;20020;-78
2021/10/28 18:26:23;;;;;;;27.80;19.42;;;13.60;93.10;;;;;;5125960;28;20033;-86
2021/10/28 18:28:50;;;;;;;24.50;19.02;;;13.60;92.90;;;;;;5128710;27;20026;-86
2021/10/28 18:31:16;;;;;;;26.25;20.05;;;13.60;92.90;;;;;;5126263;28;20487;-84
2021/10/28 18:33:43;;;;;;;27.00;20.20;;;13.60;94.00;;;;;;5124898;28;20049;-91
2021/10/28 18:36:11;;;;;;;22.02;18.02;;;13.60;93.70;;;;;;5126090;28;20448;-81
2021/10/28 18:38:37;;;;;;;25.25;18.00;;;13.60;93.30;;;;;;5126439;27;20030;-85
2021/10/28 18:41:04;;;;;;;25.60;19.45;;;13.60;92.80;;;;;;5109352;28;20016;-81
2021/10/28 18:43:31;;;;;;;29.70;20.88;;;13.60;94.00;;;;;;5123387;27;20028;-84
2021/10/28 18:45:57;;;;;;;27.92;18.30;;;13.60;93.90;;;;;;5117486;28;20458;-82
2021/10/28 18:48:25;;;;;;;26.25;19.17;;;13.60;92.50;;;;;;5124070;28;20030;-85
2021/10/28 18:50:52;;;;;;;27.58;20.58;;;13.60;92.30;;;;;;5120195;28;20097;-81
2021/10/28 18:53:18;;;;;;;26.42;19.30;;;13.70;94.70;;;;;;5114957;27;20020;-78
2021/10/28 18:55:44;;;;;;;25.75;18.77;;;13.60;93.30;;;;;;5113368;28;20504;-81
2021/10/28 18:58:10;;;;;;;30.08;19.75;;;13.60;93.60;;;;;;5117315;27;20039;-89
2021/10/28 19:00:36;;;;;;;29.95;17.73;;;13.70;93.50;;;;;;5116665;28;20062;-90
2021/10/28 19:03:02;;;;;;;22.95;18.42;;;13.60;92.50;;;;;;5133824;28;20367;-86
2021/10/28 19:05:28;;;;;;;22.83;17.02;;;13.60;92.70;;;;;;5126164;27;20032;-87
2021/10/28 19:07:54;;;;;;;22.85;17.27;;;13.60;92.70;;;;;;5118332;28;20035;-89
2021/10/28 19:10:20;;;;;;;18.27;16.35;;;13.60;91.60;;;;;;5120187;28;20020;-82
2021/10/28 19:12:46;;;;;;;18.30;16.38;;;13.60;91.00;;;;;;5127895;28;20109;-88
2021/10/28 19:15:14;;;;;;;20.90;16.92;;;13.60;90.60;;;;;;5131786;28;20015;-87
2021/10/28 19:17:42;;;;;;;27.67;15.80;;;13.50;90.60;;;;;;5126017;27;20123;-86
2021/10/28 19:20:09;;;;;;;21.75;16.73;;;13.50;91.10;;;;;;5125479;28;20378;-84
2021/10/28 19:22:35;;;;;;;20.10;16.55;;;13.40;90.30;;;;;;5120703;27;20020;-84
2021/10/28 19:25:06;;;;;;;20.90;16.85;;;13.50;90.50;;;;;;5117348;28;20107;-82
2021/10/28 19:27:35;;;;;;;19.73;16.38;;;13.50;90.50;;;;;;5113085;28;20039;-87
2021/10/28 19:30:11;;;;;;;24.95;17.35;;;13.50;90.20;;;;;;5104643;28;20153;-81
2021/10/28 19:32:38;;;;;;;20.40;16.30;;;13.40;90.40;;;;;;5108517;28;20047;-82
2021/10/28 19:35:04;;;;;;;23.48;16.67;;;13.40;90.40;;;;;;5102932;28;20019;-84
2021/10/28 19:40:51;;;;;;;24.35;16.48;;;13.30;90.50;;;;;;5078691;28;20112;-80
2021/10/28 19:48:30;;;;;;;18.88;16.08;;;13.30;90.10;;;;;;5096765;28;20016;-86
2021/10/28 19:50:56;;;;;;;20.48;16.00;;;13.30;90.40;;;;;;5099283;28;20020;-82
2021/10/28 19:53:22;;;;;;;21.15;16.58;;;13.30;90.00;;;;;;5092073;28;20081;-80
2021/10/28 19:55:48;;;;;;;25.27;16.15;;;13.30;90.70;;;;;;5097297;28;20028;-79
2021/10/28 19:58:19;;;;;;;19.77;16.38;;;13.30;90.20;;;;;;5089629;28;20058;-81
2021/10/28 20:03:47;;;;;;;24.23;17.52;;;13.30;90.30;;;;;;5072551;28;20030;-82
2021/10/28 20:14:39;;;;;;;18.92;16.67;;;13.30;90.80;;;;;;5100702;28;20031;-83
2021/10/28 20:22:34;;;;;;;21.77;16.95;;;13.30;90.10;;;;;;5110660;28;20107;-85
2021/10/28 20:25:00;;;;;;;21.15;16.90;;;13.30;90.00;;;;;;5101481;28;20024;-82
2021/10/28 20:27:26;;;;;;;21.77;15.82;;;13.30;90.00;;;;;;5090980;28;20394;-84
2021/10/28 20:29:53;;;;;;;17.20;15.27;;;13.40;89.10;;;;;;5096274;28;20024;-82
2021/10/28 20:32:18;;;;;;;20.95;16.40;;;13.40;89.10;;;;;;5094168;28;20024;-84
2021/10/28 20:37:30;;;;;;;19.52;16.52;;;13.30;88.80;;;;;;5104061;28;20096;-84
2021/10/28 20:39:56;;;;;;;20.05;17.50;;;13.30;88.60;;;;;;5100380;28;20595;-80
2021/10/28 20:42:22;;;;;;;22.58;16.38;;;13.30;90.50;;;;;;5104812;28;20051;-82
2021/10/28 20:44:50;;;;;;;21.08;16.25;;;13.20;89.50;;;;;;5100574;28;20020;-79
2021/10/28 20:47:16;;;;;;;27.55;16.52;;;13.20;88.30;;;;;;5104972;28;20837;-81
2021/10/28 20:49:42;;;;;;;25.75;16.77;;;13.20;88.50;;;;;;5108424;28;20059;-82
2021/10/28 20:52:08;;;;;;;19.92;17.17;;;13.30;88.60;;;;;;5097072;28;20032;-82
2021/10/28 20:54:35;;;;;;;20.08;16.38;;;13.20;89.70;;;;;;5094950;28;20496;-81
2021/10/28 20:57:03;;;;;;;20.40;16.50;;;13.20;89.10;;;;;;5110443;28;20035;-85
2021/10/28 20:59:30;;;;;;;25.90;17.80;;;13.20;90.00;;;;;;5111818;28;20028;-84
2021/10/28 21:01:56;;;;;;;23.63;16.45;;;13.10;88.60;;;;;;5095312;28;20027;-85
2021/10/28 21:04:22;;;;;;;22.23;16.95;;;13.20;90.00;;;;;;5104688;28;20024;-81
2021/10/28 21:06:49;;;;;;;19.65;17.42;;;13.10;90.00;;;;;;5103962;28;20126;-81
2021/10/28 21:09:14;;;;;;;27.80;18.20;;;13.10;89.90;;;;;;5101892;28;20031;-81
2021/10/28 21:11:45;;;;;;;22.20;17.15;;;13.00;89.00;;;;;;5101522;28;20016;-83
2021/10/28 21:14:11;;;;;;;20.27;17.38;;;13.10;89.70;;;;;;5095310;28;20047;-81
2021/10/28 21:16:36;;;;;;;20.73;16.55;;;13.00;89.80;;;;;;5102052;28;20477;-82
2021/10/28 21:19:02;;;;;;;20.58;17.27;;;13.00;89.30;;;;;;5095544;28;20079;-81
2021/10/28 21:21:28;;;;;;;23.05;17.38;;;13.00;88.70;;;;;;5097789;28;20076;-80
2021/10/28 21:23:54;;;;;;;19.60;16.00;;;12.90;88.30;;;;;;5097109;28;20066;-81
2021/10/28 21:26:20;;;;;;;20.90;16.25;;;12.90;87.40;;;;;;5106061;28;20019;-82
2021/10/28 21:28:46;;;;;;;22.92;17.85;;;12.90;87.70;;;;;;5096608;28;20027;-83
2021/10/28 21:31:12;;;;;;;22.83;17.15;;;12.90;87.40;;;;;;5103618;28;20031;-84
2021/10/28 21:33:38;;;;;;;20.77;16.80;;;12.90;88.10;;;;;;5096587;28;20015;-82
2021/10/28 21:36:04;;;;;;;20.48;16.88;;;12.80;88.80;;;;;;5098858;28;20024;-81
2021/10/28 21:38:30;;;;;;;19.80;16.58;;;12.80;87.40;;;;;;5093108;28;20034;-81
2021/10/28 21:40:56;;;;;;;20.75;16.38;;;12.80;87.20;;;;;;5099751;28;20039;-82
2021/10/28 21:43:22;;;;;;;23.17;17.45;;;12.70;87.60;;;;;;5108820;28;20505;-88
2021/10/28 21:45:50;;;;;;;24.38;17.13;;;12.70;87.00;;;;;;5096697;28;20012;-86
2021/10/28 21:48:21;;;;;;;21.50;16.48;;;12.70;86.80;;;;;;5090995;28;20142;-81
2021/10/28 21:50:53;;;;;;;20.35;16.98;;;12.60;86.60;;;;;;5104379;28;20106;-79